sensor_id;sensor_type;location;lat;lon;timestamp;temperature;humidity
7445;DHT22;3764;48.126;11.594;2023-07-13T00:01:52;19.20;99.90
7445;DHT22;3764;48.126;11.594;2023-07-13T00:04:21;19.20;99.90
7445;DHT22;3764;48.126;11.594;2023-07-13T00:06:51;19.20;99.90
7445;DHT22;3764;48.126;11.594;2023-07-13T00:09:19;19.20;99.90
7445;DHT22;3764;48.126;11.594;2023-07-13T00:11:50;19.20;99.90
7445;DHT22;3764;48.126;11.594;2023-07-13T00:14:17;19.20;99.90
7445;DHT22;3764;48.126;11.594;2023-07-13T00:16:45;19.20;99.90
7445;DHT22;3764;48.126;11.594;2023-07-13T00:19:13;19.30;99.90
7445;DHT22;3764;48.126;11.594;2023-07-13T00:21:40;19.30;99.90
7445;DHT22;3764;48.126;11.594;2023-07-13T00:24:11;19.30;99.90
7445;DHT22;3764;48.126;11.594;2023-07-13T00:26:39;19.30;99.90
7445;DHT22;3764;48.126;11.594;2023-07-13T00:29:07;19.30;99.90
7445;DHT22;3764;48.126;11.594;2023-07-13T00:31:35;19.30;99.90
7445;DHT22;3764;48.126;11.594;2023-07-13T00:34:02;19.30;99.90
7445;DHT22;3764;48.126;11.594;2023-07-13T00:36:30;19.20;99.90
7445;DHT22;3764;48.126;11.594;2023-07-13T00:38:57;19.20;99.90
7445;DHT22;3764;48.126;11.594;2023-07-13T00:41:25;19.30;99.90
7445;DHT22;3764;48.126;11.594;2023-07-13T00:43:53;19.20;99.90
7445;DHT22;3764;48.126;11.594;2023-07-13T00:46:24;19.20;99.90
7445;DHT22;3764;48.126;11.594;2023-07-13T00:48:53;19.20;99.90
7445;DHT22;3764;48.126;11.594;2023-07-13T00:51:28;19.20;99.90
7445;DHT22;3764;48.126;11.594;2023-07-13T00:53:58;19.20;99.90
7445;DHT22;3764;48.126;11.594;2023-07-13T00:56:26;19.20;99.90
7445;DHT22;3764;48.126;11.594;2023-07-13T00:58:54;19.20;99.90
7445;DHT22;3764;48.126;11.594;2023-07-13T01:01:23;19.20;99.90
7445;DHT22;3764;48.126;11.594;2023-07-13T01:03:50;19.20;99.90
7445;DHT22;3764;48.126;11.594;2023-07-13T01:06:18;19.20;99.90
7445;DHT22;3764;48.126;11.594;2023-07-13T01:08:45;19.20;99.90
7445;DHT22;3764;48.126;11.594;2023-07-13T01:11:12;19.20;99.90
7445;DHT22;3764;48.126;11.594;2023-07-13T01:13:44;19.20;99.90
7445;DHT22;3764;48.126;11.594;2023-07-13T01:16:18;19.20;99.90
7445;DHT22;3764;48.126;11.594;2023-07-13T01:18:47;19.20;99.90
7445;DHT22;3764;48.126;11.594;2023-07-13T01:21:16;19.20;99.90
7445;DHT22;3764;48.126;11.594;2023-07-13T01:23:44;19.20;99.90
7445;DHT22;3764;48.126;11.594;2023-07-13T01:26:12;19.20;99.90
7445;DHT22;3764;48.126;11.594;2023-07-13T01:28:39;19.20;99.90
7445;DHT22;3764;48.126;11.594;2023-07-13T01:31:06;19.20;99.90
7445;DHT22;3764;48.126;11.594;2023-07-13T01:33:36;19.20;99.90
7445;DHT22;3764;48.126;11.594;2023-07-13T01:36:03;19.20;99.90
7445;DHT22;3764;48.126;11.594;2023-07-13T01:38:34;19.30;99.90
7445;DHT22;3764;48.126;11.594;2023-07-13T01:41:01;19.30;99.90
7445;DHT22;3764;48.126;11.594;2023-07-13T01:43:29;19.30;99.90
7445;DHT22;3764;48.126;11.594;2023-07-13T01:45:56;19.30;99.90
7445;DHT22;3764;48.126;11.594;2023-07-13T01:48:23;19.30;99.90
7445;DHT22;3764;48.126;11.594;2023-07-13T01:50:50;19.30;99.90
7445;DHT22;3764;48.126;11.594;2023-07-13T01:53:17;19.30;99.90
7445;DHT22;3764;48.126;11.594;2023-07-13T01:55:45;19.30;99.90
7445;DHT22;3764;48.126;11.594;2023-07-13T01:58:13;19.40;99.90
7445;DHT22;3764;48.126;11.594;2023-07-13T02:00:40;19.40;99.90
7445;DHT22;3764;48.126;11.594;2023-07-13T02:03:07;19.50;99.90
7445;DHT22;3764;48.126;11.594;2023-07-13T02:05:36;19.50;99.90
7445;DHT22;3764;48.126;11.594;2023-07-13T02:08:03;19.60;99.90
7445;DHT22;3764;48.126;11.594;2023-07-13T02:10:30;19.60;99.90
7445;DHT22;3764;48.126;11.594;2023-07-13T02:12:59;19.70;99.90
7445;DHT22;3764;48.126;11.594;2023-07-13T02:15:26;19.70;99.90
7445;DHT22;3764;48.126;11.594;2023-07-13T02:17:53;19.80;99.90
7445;DHT22;3764;48.126;11.594;2023-07-13T02:20:20;19.80;99.90
7445;DHT22;3764;48.126;11.594;2023-07-13T02:22:47;19.80;99.90
7445;DHT22;3764;48.126;11.594;2023-07-13T02:25:14;19.80;99.90
7445;DHT22;3764;48.126;11.594;2023-07-13T02:27:41;19.80;99.90
7445;DHT22;3764;48.126;11.594;2023-07-13T02:30:10;19.90;99.90
7445;DHT22;3764;48.126;11.594;2023-07-13T02:32:38;19.90;99.90
7445;DHT22;3764;48.126;11.594;2023-07-13T02:35:05;19.90;99.90
7445;DHT22;3764;48.126;11.594;2023-07-13T02:37:32;19.90;99.90
7445;DHT22;3764;48.126;11.594;2023-07-13T02:39:59;19.90;99.90
7445;DHT22;3764;48.126;11.594;2023-07-13T02:42:26;19.90;99.90
7445;DHT22;3764;48.126;11.594;2023-07-13T02:44:54;20.00;99.90
7445;DHT22;3764;48.126;11.594;2023-07-13T02:47:22;20.00;99.90
7445;DHT22;3764;48.126;11.594;2023-07-13T02:49:49;19.90;99.90
7445;DHT22;3764;48.126;11.594;2023-07-13T02:52:16;19.90;99.90
7445;DHT22;3764;48.126;11.594;2023-07-13T02:54:43;19.90;99.90
7445;DHT22;3764;48.126;11.594;2023-07-13T02:57:10;19.90;99.90
7445;DHT22;3764;48.126;11.594;2023-07-13T02:59:37;19.90;99.90
7445;DHT22;3764;48.126;11.594;2023-07-13T03:02:04;19.80;99.90
7445;DHT22;3764;48.126;11.594;2023-07-13T03:04:34;19.80;99.90
7445;DHT22;3764;48.126;11.594;2023-07-13T03:07:02;19.80;99.90
7445;DHT22;3764;48.126;11.594;2023-07-13T03:09:29;19.70;99.90
7445;DHT22;3764;48.126;11.594;2023-07-13T03:11:57;19.70;99.90
7445;DHT22;3764;48.126;11.594;2023-07-13T03:14:24;19.50;99.90
7445;DHT22;3764;48.126;11.594;2023-07-13T03:16:51;19.40;99.90
7445;DHT22;3764;48.126;11.594;2023-07-13T03:19:19;19.40;99.90
7445;DHT22;3764;48.126;11.594;2023-07-13T03:21:47;19.40;99.90
7445;DHT22;3764;48.126;11.594;2023-07-13T03:24:14;19.40;99.90
7445;DHT22;3764;48.126;11.594;2023-07-13T03:26:42;19.40;99.90
7445;DHT22;3764;48.126;11.594;2023-07-13T03:29:09;19.30;99.90
7445;DHT22;3764;48.126;11.594;2023-07-13T03:31:36;19.30;99.90
7445;DHT22;3764;48.126;11.594;2023-07-13T03:34:04;19.30;99.90
7445;DHT22;3764;48.126;11.594;2023-07-13T03:36:32;19.20;99.90
7445;DHT22;3764;48.126;11.594;2023-07-13T03:39:02;19.10;99.90
7445;DHT22;3764;48.126;11.594;2023-07-13T03:41:30;19.10;99.90
7445;DHT22;3764;48.126;11.594;2023-07-13T03:43:57;19.00;99.90
7445;DHT22;3764;48.126;11.594;2023-07-13T03:46:24;19.00;99.90
7445;DHT22;3764;48.126;11.594;2023-07-13T03:48:51;19.00;99.90
7445;DHT22;3764;48.126;11.594;2023-07-13T03:51:19;19.10;99.90
7445;DHT22;3764;48.126;11.594;2023-07-13T03:53:47;19.10;99.90
7445;DHT22;3764;48.126;11.594;2023-07-13T03:56:16;19.10;99.90
7445;DHT22;3764;48.126;11.594;2023-07-13T03:58:45;19.10;99.90
7445;DHT22;3764;48.126;11.594;2023-07-13T04:01:14;19.10;99.90
7445;DHT22;3764;48.126;11.594;2023-07-13T04:03:42;19.10;99.90
7445;DHT22;3764;48.126;11.594;2023-07-13T04:06:14;19.00;99.90
7445;DHT22;3764;48.126;11.594;2023-07-13T04:08:47;18.80;99.90
7445;DHT22;3764;48.126;11.594;2023-07-13T04:11:17;18.70;99.90
7445;DHT22;3764;48.126;11.594;2023-07-13T04:13:44;18.60;99.90
7445;DHT22;3764;48.126;11.594;2023-07-13T04:16:12;18.50;99.90
7445;DHT22;3764;48.126;11.594;2023-07-13T04:18:39;18.40;99.90
7445;DHT22;3764;48.126;11.594;2023-07-13T04:21:07;18.40;99.90
7445;DHT22;3764;48.126;11.594;2023-07-13T04:23:35;18.40;99.90
7445;DHT22;3764;48.126;11.594;2023-07-13T04:26:02;18.40;99.90
7445;DHT22;3764;48.126;11.594;2023-07-13T04:28:31;18.40;99.90
7445;DHT22;3764;48.126;11.594;2023-07-13T04:30:58;18.40;99.90
7445;DHT22;3764;48.126;11.594;2023-07-13T04:33:27;18.40;99.90
7445;DHT22;3764;48.126;11.594;2023-07-13T04:35:55;18.40;99.90
7445;DHT22;3764;48.126;11.594;2023-07-13T04:38:25;18.40;99.90
7445;DHT22;3764;48.126;11.594;2023-07-13T04:40:54;18.40;99.90
7445;DHT22;3764;48.126;11.594;2023-07-13T04:43:22;18.40;99.90
7445;DHT22;3764;48.126;11.594;2023-07-13T04:45:51;18.40;99.90
7445;DHT22;3764;48.126;11.594;2023-07-13T04:48:19;18.50;99.90
7445;DHT22;3764;48.126;11.594;2023-07-13T04:50:47;18.50;99.90
7445;DHT22;3764;48.126;11.594;2023-07-13T04:53:15;18.60;99.90
7445;DHT22;3764;48.126;11.594;2023-07-13T04:55:42;18.70;99.90
7445;DHT22;3764;48.126;11.594;2023-07-13T04:58:09;18.70;99.90
7445;DHT22;3764;48.126;11.594;2023-07-13T05:00:36;18.70;99.90
7445;DHT22;3764;48.126;11.594;2023-07-13T05:03:05;18.70;99.90
7445;DHT22;3764;48.126;11.594;2023-07-13T05:05:31;18.70;99.90
7445;DHT22;3764;48.126;11.594;2023-07-13T05:07:59;18.70;99.90
7445;DHT22;3764;48.126;11.594;2023-07-13T05:10:26;18.80;99.90
7445;DHT22;3764;48.126;11.594;2023-07-13T05:12:53;18.80;99.90
7445;DHT22;3764;48.126;11.594;2023-07-13T05:15:21;18.80;99.90
7445;DHT22;3764;48.126;11.594;2023-07-13T05:17:49;18.80;99.90
7445;DHT22;3764;48.126;11.594;2023-07-13T05:20:18;18.80;99.90
7445;DHT22;3764;48.126;11.594;2023-07-13T05:22:46;18.80;99.90
7445;DHT22;3764;48.126;11.594;2023-07-13T05:25:13;18.80;99.90
7445;DHT22;3764;48.126;11.594;2023-07-13T05:27:41;18.80;99.90
7445;DHT22;3764;48.126;11.594;2023-07-13T05:30:08;18.90;99.90
7445;DHT22;3764;48.126;11.594;2023-07-13T05:32:37;18.90;99.90
7445;DHT22;3764;48.126;11.594;2023-07-13T05:35:05;19.00;99.90
7445;DHT22;3764;48.126;11.594;2023-07-13T05:37:34;19.00;99.90
7445;DHT22;3764;48.126;11.594;2023-07-13T05:40:01;19.00;99.90
7445;DHT22;3764;48.126;11.594;2023-07-13T05:42:28;19.00;99.90
7445;DHT22;3764;48.126;11.594;2023-07-13T05:44:56;19.00;99.90
7445;DHT22;3764;48.126;11.594;2023-07-13T05:47:24;19.00;99.90
7445;DHT22;3764;48.126;11.594;2023-07-13T05:49:51;19.00;99.90
7445;DHT22;3764;48.126;11.594;2023-07-13T05:52:18;19.00;99.90
7445;DHT22;3764;48.126;11.594;2023-07-13T05:54:46;19.00;99.90
7445;DHT22;3764;48.126;11.594;2023-07-13T05:57:13;19.00;99.90
7445;DHT22;3764;48.126;11.594;2023-07-13T05:59:41;19.10;99.90
7445;DHT22;3764;48.126;11.594;2023-07-13T06:02:09;19.10;99.90
7445;DHT22;3764;48.126;11.594;2023-07-13T06:04:37;19.10;99.90
7445;DHT22;3764;48.126;11.594;2023-07-13T06:07:04;19.10;99.90
7445;DHT22;3764;48.126;11.594;2023-07-13T06:09:31;19.10;99.90
7445;DHT22;3764;48.126;11.594;2023-07-13T06:12:00;19.10;99.90
7445;DHT22;3764;48.126;11.594;2023-07-13T06:14:27;19.10;99.90
7445;DHT22;3764;48.126;11.594;2023-07-13T06:16:54;19.20;99.90
7445;DHT22;3764;48.126;11.594;2023-07-13T06:19:21;19.10;99.90
7445;DHT22;3764;48.126;11.594;2023-07-13T06:21:48;19.10;99.90
7445;DHT22;3764;48.126;11.594;2023-07-13T06:24:15;19.10;99.90
7445;DHT22;3764;48.126;11.594;2023-07-13T06:26:42;19.10;99.90
7445;DHT22;3764;48.126;11.594;2023-07-13T06:29:10;19.00;99.90
7445;DHT22;3764;48.126;11.594;2023-07-13T06:31:37;19.00;99.90
7445;DHT22;3764;48.126;11.594;2023-07-13T06:34:04;19.10;99.90
7445;DHT22;3764;48.126;11.594;2023-07-13T06:36:31;19.00;99.90
7445;DHT22;3764;48.126;11.594;2023-07-13T06:38:58;19.00;99.90
7445;DHT22;3764;48.126;11.594;2023-07-13T06:41:25;19.10;99.90
7445;DHT22;3764;48.126;11.594;2023-07-13T06:43:55;19.00;99.90
7445;DHT22;3764;48.126;11.594;2023-07-13T06:46:23;19.00;99.90
7445;DHT22;3764;48.126;11.594;2023-07-13T06:48:50;19.00;99.90
7445;DHT22;3764;48.126;11.594;2023-07-13T06:51:17;19.00;99.90
7445;DHT22;3764;48.126;11.594;2023-07-13T06:53:44;19.00;99.90
7445;DHT22;3764;48.126;11.594;2023-07-13T06:56:12;19.00;99.90
7445;DHT22;3764;48.126;11.594;2023-07-13T06:58:39;19.00;99.90
7445;DHT22;3764;48.126;11.594;2023-07-13T07:01:06;19.00;99.90
7445;DHT22;3764;48.126;11.594;2023-07-13T07:03:34;19.00;99.90
7445;DHT22;3764;48.126;11.594;2023-07-13T07:06:03;19.00;99.90
7445;DHT22;3764;48.126;11.594;2023-07-13T07:08:34;19.00;99.90
7445;DHT22;3764;48.126;11.594;2023-07-13T07:11:01;19.10;99.90
7445;DHT22;3764;48.126;11.594;2023-07-13T07:13:28;19.10;99.90
7445;DHT22;3764;48.126;11.594;2023-07-13T07:15:55;19.10;99.90
7445;DHT22;3764;48.126;11.594;2023-07-13T07:18:22;19.10;99.90
7445;DHT22;3764;48.126;11.594;2023-07-13T07:20:51;19.10;99.90
7445;DHT22;3764;48.126;11.594;2023-07-13T07:23:18;19.20;99.90
7445;DHT22;3764;48.126;11.594;2023-07-13T07:25:45;19.20;99.90
7445;DHT22;3764;48.126;11.594;2023-07-13T07:28:15;19.20;99.90
7445;DHT22;3764;48.126;11.594;2023-07-13T07:30:43;19.20;99.90
7445;DHT22;3764;48.126;11.594;2023-07-13T07:33:10;19.30;99.90
7445;DHT22;3764;48.126;11.594;2023-07-13T07:35:37;19.20;99.90
7445;DHT22;3764;48.126;11.594;2023-07-13T07:38:06;19.30;99.90
7445;DHT22;3764;48.126;11.594;2023-07-13T07:40:37;19.30;99.90
7445;DHT22;3764;48.126;11.594;2023-07-13T07:43:04;19.30;99.90
7445;DHT22;3764;48.126;11.594;2023-07-13T07:45:31;19.20;99.90
7445;DHT22;3764;48.126;11.594;2023-07-13T07:47:58;19.30;99.90
7445;DHT22;3764;48.126;11.594;2023-07-13T07:50:25;19.20;99.90
7445;DHT22;3764;48.126;11.594;2023-07-13T07:52:52;19.30;99.90
7445;DHT22;3764;48.126;11.594;2023-07-13T07:55:23;19.20;99.90
7445;DHT22;3764;48.126;11.594;2023-07-13T07:57:50;19.20;99.90
7445;DHT22;3764;48.126;11.594;2023-07-13T08:00:18;19.20;99.90
7445;DHT22;3764;48.126;11.594;2023-07-13T08:02:45;19.30;99.90
7445;DHT22;3764;48.126;11.594;2023-07-13T08:05:13;19.30;99.90
7445;DHT22;3764;48.126;11.594;2023-07-13T08:07:40;19.30;99.90
7445;DHT22;3764;48.126;11.594;2023-07-13T08:10:08;19.30;99.90
7445;DHT22;3764;48.126;11.594;2023-07-13T08:12:37;19.30;99.90
7445;DHT22;3764;48.126;11.594;2023-07-13T08:15:08;19.30;99.90
7445;DHT22;3764;48.126;11.594;2023-07-13T08:17:35;19.30;99.90
7445;DHT22;3764;48.126;11.594;2023-07-13T08:20:03;19.20;99.90
7445;DHT22;3764;48.126;11.594;2023-07-13T08:22:31;19.20;99.90
7445;DHT22;3764;48.126;11.594;2023-07-13T08:24:59;19.20;99.90
7445;DHT22;3764;48.126;11.594;2023-07-13T08:27:27;19.10;99.90
7445;DHT22;3764;48.126;11.594;2023-07-13T08:29:56;19.10;99.90
7445;DHT22;3764;48.126;11.594;2023-07-13T08:32:23;19.20;99.90
7445;DHT22;3764;48.126;11.594;2023-07-13T08:34:51;19.10;99.90
7445;DHT22;3764;48.126;11.594;2023-07-13T08:37:18;19.20;99.90
7445;DHT22;3764;48.126;11.594;2023-07-13T08:39:46;19.20;99.90
7445;DHT22;3764;48.126;11.594;2023-07-13T08:42:28;19.20;99.90
7445;DHT22;3764;48.126;11.594;2023-07-13T08:45:06;19.20;99.90
7445;DHT22;3764;48.126;11.594;2023-07-13T08:47:39;19.20;99.90
7445;DHT22;3764;48.126;11.594;2023-07-13T08:50:12;19.20;99.90
7445;DHT22;3764;48.126;11.594;2023-07-13T08:52:42;19.30;99.90
7445;DHT22;3764;48.126;11.594;2023-07-13T08:55:14;19.40;99.90
7445;DHT22;3764;48.126;11.594;2023-07-13T08:57:45;19.60;99.90
7445;DHT22;3764;48.126;11.594;2023-07-13T09:00:15;19.60;99.90
7445;DHT22;3764;48.126;11.594;2023-07-13T09:02:45;19.80;99.90
7445;DHT22;3764;48.126;11.594;2023-07-13T09:05:15;19.90;99.90
7445;DHT22;3764;48.126;11.594;2023-07-13T09:10:42;20.00;99.90
7445;DHT22;3764;48.126;11.594;2023-07-13T09:13:20;20.10;99.90
7445;DHT22;3764;48.126;11.594;2023-07-13T09:15:50;20.20;99.90
7445;DHT22;3764;48.126;11.594;2023-07-13T09:18:23;20.10;99.90
7445;DHT22;3764;48.126;11.594;2023-07-13T09:20:56;20.10;99.90
7445;DHT22;3764;48.126;11.594;2023-07-13T09:23:27;20.00;99.90
7445;DHT22;3764;48.126;11.594;2023-07-13T09:26:01;20.00;99.90
7445;DHT22;3764;48.126;11.594;2023-07-13T09:28:33;19.90;99.90
7445;DHT22;3764;48.126;11.594;2023-07-13T09:31:06;19.90;99.90
7445;DHT22;3764;48.126;11.594;2023-07-13T09:33:33;19.80;99.90
7445;DHT22;3764;48.126;11.594;2023-07-13T09:36:01;19.80;99.90
7445;DHT22;3764;48.126;11.594;2023-07-13T09:38:29;19.70;99.90
7445;DHT22;3764;48.126;11.594;2023-07-13T09:41:15;19.70;99.90
7445;DHT22;3764;48.126;11.594;2023-07-13T09:44:02;19.70;99.90
7445;DHT22;3764;48.126;11.594;2023-07-13T09:46:36;19.60;99.90
7445;DHT22;3764;48.126;11.594;2023-07-13T09:49:03;19.60;99.90
7445;DHT22;3764;48.126;11.594;2023-07-13T09:51:30;19.60;99.90
7445;DHT22;3764;48.126;11.594;2023-07-13T09:53:59;19.60;99.90
7445;DHT22;3764;48.126;11.594;2023-07-13T09:56:29;19.60;99.90
7445;DHT22;3764;48.126;11.594;2023-07-13T09:58:56;19.60;99.90
7445;DHT22;3764;48.126;11.594;2023-07-13T10:01:37;19.60;99.90
7445;DHT22;3764;48.126;11.594;2023-07-13T10:04:11;19.60;99.90
7445;DHT22;3764;48.126;11.594;2023-07-13T10:06:40;19.60;99.90
7445;DHT22;3764;48.126;11.594;2023-07-13T10:09:09;19.70;99.90
7445;DHT22;3764;48.126;11.594;2023-07-13T10:11:37;19.70;99.90
7445;DHT22;3764;48.126;11.594;2023-07-13T10:14:13;19.70;99.90
7445;DHT22;3764;48.126;11.594;2023-07-13T10:16:44;19.70;99.90
7445;DHT22;3764;48.126;11.594;2023-07-13T10:19:15;19.70;99.90
7445;DHT22;3764;48.126;11.594;2023-07-13T10:21:52;19.70;99.90
7445;DHT22;3764;48.126;11.594;2023-07-13T10:24:22;19.80;99.90
7445;DHT22;3764;48.126;11.594;2023-07-13T10:26:54;19.90;99.90
7445;DHT22;3764;48.126;11.594;2023-07-13T10:29:25;20.00;99.90
7445;DHT22;3764;48.126;11.594;2023-07-13T10:31:55;20.00;99.90
7445;DHT22;3764;48.126;11.594;2023-07-13T10:34:23;20.10;99.90
7445;DHT22;3764;48.126;11.594;2023-07-13T10:36:52;20.10;99.90
7445;DHT22;3764;48.126;11.594;2023-07-13T10:39:20;20.10;99.90
7445;DHT22;3764;48.126;11.594;2023-07-13T10:41:52;20.20;99.90
7445;DHT22;3764;48.126;11.594;2023-07-13T10:44:22;20.20;99.90
7445;DHT22;3764;48.126;11.594;2023-07-13T10:46:55;20.30;99.90
7445;DHT22;3764;48.126;11.594;2023-07-13T10:49:23;20.30;99.90
7445;DHT22;3764;48.126;11.594;2023-07-13T10:51:51;20.40;99.90
7445;DHT22;3764;48.126;11.594;2023-07-13T10:54:20;20.40;99.90
7445;DHT22;3764;48.126;11.594;2023-07-13T10:57:08;20.40;99.90
7445;DHT22;3764;48.126;11.594;2023-07-13T10:59:42;20.50;99.90
7445;DHT22;3764;48.126;11.594;2023-07-13T11:02:23;20.50;99.90
7445;DHT22;3764;48.126;11.594;2023-07-13T11:04:53;20.60;99.90
7445;DHT22;3764;48.126;11.594;2023-07-13T11:07:23;20.50;99.90
7445;DHT22;3764;48.126;11.594;2023-07-13T11:09:51;20.60;99.90
7445;DHT22;3764;48.126;11.594;2023-07-13T11:12:51;20.60;99.90
7445;DHT22;3764;48.126;11.594;2023-07-13T11:15:38;20.60;99.90
7445;DHT22;3764;48.126;11.594;2023-07-13T11:18:21;20.60;99.90
7445;DHT22;3764;48.126;11.594;2023-07-13T11:20:49;20.60;99.90
7445;DHT22;3764;48.126;11.594;2023-07-13T11:23:27;20.70;99.90
7445;DHT22;3764;48.126;11.594;2023-07-13T11:25:57;20.70;99.90
7445;DHT22;3764;48.126;11.594;2023-07-13T11:28:30;20.70;99.90
7445;DHT22;3764;48.126;11.594;2023-07-13T11:31:02;20.80;99.90
7445;DHT22;3764;48.126;11.594;2023-07-13T11:33:50;20.80;99.90
7445;DHT22;3764;48.126;11.594;2023-07-13T11:36:19;20.80;99.90
7445;DHT22;3764;48.126;11.594;2023-07-13T11:38:55;20.90;99.90
7445;DHT22;3764;48.126;11.594;2023-07-13T11:41:30;20.90;99.90
7445;DHT22;3764;48.126;11.594;2023-07-13T11:44:07;20.90;99.90
7445;DHT22;3764;48.126;11.594;2023-07-13T11:46:34;20.90;99.90
7445;DHT22;3764;48.126;11.594;2023-07-13T11:49:05;21.00;99.90
7445;DHT22;3764;48.126;11.594;2023-07-13T11:51:34;21.00;99.90
7445;DHT22;3764;48.126;11.594;2023-07-13T11:54:04;21.10;99.90
7445;DHT22;3764;48.126;11.594;2023-07-13T11:56:32;21.20;99.90
7445;DHT22;3764;48.126;11.594;2023-07-13T11:59:07;21.30;99.90
7445;DHT22;3764;48.126;11.594;2023-07-13T12:01:37;21.30;99.90
7445;DHT22;3764;48.126;11.594;2023-07-13T12:04:13;21.30;99.90
7445;DHT22;3764;48.126;11.594;2023-07-13T12:06:54;21.40;99.90
7445;DHT22;3764;48.126;11.594;2023-07-13T12:09:21;21.40;99.90
7445;DHT22;3764;48.126;11.594;2023-07-13T12:11:51;21.40;99.90
7445;DHT22;3764;48.126;11.594;2023-07-13T12:14:20;21.40;99.90
7445;DHT22;3764;48.126;11.594;2023-07-13T12:16:50;21.40;99.90
7445;DHT22;3764;48.126;11.594;2023-07-13T12:19:20;21.50;99.90
7445;DHT22;3764;48.126;11.594;2023-07-13T12:21:48;21.60;99.90
7445;DHT22;3764;48.126;11.594;2023-07-13T12:24:17;21.70;99.90
7445;DHT22;3764;48.126;11.594;2023-07-13T12:26:48;21.70;99.90
7445;DHT22;3764;48.126;11.594;2023-07-13T12:29:19;21.80;99.90
7445;DHT22;3764;48.126;11.594;2023-07-13T12:31:47;21.80;99.90
7445;DHT22;3764;48.126;11.594;2023-07-13T12:34:23;21.80;99.90
7445;DHT22;3764;48.126;11.594;2023-07-13T12:36:53;21.80;99.90
7445;DHT22;3764;48.126;11.594;2023-07-13T12:39:23;21.80;99.90
7445;DHT22;3764;48.126;11.594;2023-07-13T12:41:52;21.90;99.90
7445;DHT22;3764;48.126;11.594;2023-07-13T12:44:27;21.90;99.90
7445;DHT22;3764;48.126;11.594;2023-07-13T12:46:57;21.90;99.90
7445;DHT22;3764;48.126;11.594;2023-07-13T12:49:28;21.90;99.90
7445;DHT22;3764;48.126;11.594;2023-07-13T12:52:00;21.90;99.90
7445;DHT22;3764;48.126;11.594;2023-07-13T12:54:29;21.80;99.90
7445;DHT22;3764;48.126;11.594;2023-07-13T12:56:57;21.80;99.90
7445;DHT22;3764;48.126;11.594;2023-07-13T12:59:30;21.80;99.90
7445;DHT22;3764;48.126;11.594;2023-07-13T13:01:59;21.90;99.90
7445;DHT22;3764;48.126;11.594;2023-07-13T13:04:28;21.90;99.90
7445;DHT22;3764;48.126;11.594;2023-07-13T13:07:03;22.00;99.90
7445;DHT22;3764;48.126;11.594;2023-07-13T13:09:32;22.10;99.90
7445;DHT22;3764;48.126;11.594;2023-07-13T13:11:59;22.20;99.90
7445;DHT22;3764;48.126;11.594;2023-07-13T13:14:28;22.20;99.90
7445;DHT22;3764;48.126;11.594;2023-07-13T13:16:55;22.20;99.90
7445;DHT22;3764;48.126;11.594;2023-07-13T13:19:25;22.30;99.90
7445;DHT22;3764;48.126;11.594;2023-07-13T13:21:53;22.30;99.90
7445;DHT22;3764;48.126;11.594;2023-07-13T13:24:24;22.30;99.90
7445;DHT22;3764;48.126;11.594;2023-07-13T13:26:52;22.30;99.90
7445;DHT22;3764;48.126;11.594;2023-07-13T13:29:23;22.30;99.90
7445;DHT22;3764;48.126;11.594;2023-07-13T13:31:53;22.40;99.90
7445;DHT22;3764;48.126;11.594;2023-07-13T13:34:21;22.40;99.90
7445;DHT22;3764;48.126;11.594;2023-07-13T13:36:49;22.40;99.90
7445;DHT22;3764;48.126;11.594;2023-07-13T13:39:22;22.40;99.90
7445;DHT22;3764;48.126;11.594;2023-07-13T13:41:51;22.40;99.90
7445;DHT22;3764;48.126;11.594;2023-07-13T13:44:19;22.40;99.90
7445;DHT22;3764;48.126;11.594;2023-07-13T13:46:48;22.40;99.90
7445;DHT22;3764;48.126;11.594;2023-07-13T13:49:19;22.40;99.90
7445;DHT22;3764;48.126;11.594;2023-07-13T13:51:48;22.40;99.90
7445;DHT22;3764;48.126;11.594;2023-07-13T13:54:17;22.40;99.90
7445;DHT22;3764;48.126;11.594;2023-07-13T13:56:46;22.30;99.90
7445;DHT22;3764;48.126;11.594;2023-07-13T13:59:14;22.40;99.90
7445;DHT22;3764;48.126;11.594;2023-07-13T14:01:43;22.30;99.90
7445;DHT22;3764;48.126;11.594;2023-07-13T14:04:15;22.30;99.90
7445;DHT22;3764;48.126;11.594;2023-07-13T14:06:44;22.30;99.90
7445;DHT22;3764;48.126;11.594;2023-07-13T14:09:16;22.30;99.90
7445;DHT22;3764;48.126;11.594;2023-07-13T14:11:44;22.30;99.90
7445;DHT22;3764;48.126;11.594;2023-07-13T14:14:16;22.30;99.90
7445;DHT22;3764;48.126;11.594;2023-07-13T14:16:43;22.30;99.90
7445;DHT22;3764;48.126;11.594;2023-07-13T14:19:13;22.30;99.90
7445;DHT22;3764;48.126;11.594;2023-07-13T14:21:40;22.30;99.90
7445;DHT22;3764;48.126;11.594;2023-07-13T14:24:09;22.30;99.90
7445;DHT22;3764;48.126;11.594;2023-07-13T14:26:39;22.30;99.90
7445;DHT22;3764;48.126;11.594;2023-07-13T14:29:12;22.30;99.90
7445;DHT22;3764;48.126;11.594;2023-07-13T14:31:40;22.40;99.90
7445;DHT22;3764;48.126;11.594;2023-07-13T14:34:08;22.40;99.90
7445;DHT22;3764;48.126;11.594;2023-07-13T14:36:39;22.50;99.90
7445;DHT22;3764;48.126;11.594;2023-07-13T14:39:12;22.50;99.90
7445;DHT22;3764;48.126;11.594;2023-07-13T14:41:40;22.50;99.90
7445;DHT22;3764;48.126;11.594;2023-07-13T14:44:12;22.50;99.90
7445;DHT22;3764;48.126;11.594;2023-07-13T14:46:39;22.50;99.90
7445;DHT22;3764;48.126;11.594;2023-07-13T14:49:14;22.60;99.90
7445;DHT22;3764;48.126;11.594;2023-07-13T14:51:42;22.60;99.90
7445;DHT22;3764;48.126;11.594;2023-07-13T14:54:11;22.60;99.90
7445;DHT22;3764;48.126;11.594;2023-07-13T14:56:38;22.60;99.90
7445;DHT22;3764;48.126;11.594;2023-07-13T14:59:05;22.60;99.90
7445;DHT22;3764;48.126;11.594;2023-07-13T15:01:33;22.60;99.90
7445;DHT22;3764;48.126;11.594;2023-07-13T15:04:00;22.70;99.90
7445;DHT22;3764;48.126;11.594;2023-07-13T15:06:28;22.70;99.90
7445;DHT22;3764;48.126;11.594;2023-07-13T15:08:57;22.80;99.90
7445;DHT22;3764;48.126;11.594;2023-07-13T15:11:25;22.80;99.90
7445;DHT22;3764;48.126;11.594;2023-07-13T15:13:52;22.90;99.90
7445;DHT22;3764;48.126;11.594;2023-07-13T15:16:22;23.00;99.90
7445;DHT22;3764;48.126;11.594;2023-07-13T15:18:50;23.10;99.90
7445;DHT22;3764;48.126;11.594;2023-07-13T15:21:20;23.20;99.90
7445;DHT22;3764;48.126;11.594;2023-07-13T15:23:47;23.30;99.90
7445;DHT22;3764;48.126;11.594;2023-07-13T15:26:15;23.50;99.90
7445;DHT22;3764;48.126;11.594;2023-07-13T15:28:47;23.70;99.90
7445;DHT22;3764;48.126;11.594;2023-07-13T15:31:20;23.70;99.90
7445;DHT22;3764;48.126;11.594;2023-07-13T15:33:48;23.80;99.90
7445;DHT22;3764;48.126;11.594;2023-07-13T15:36:16;23.80;99.90
7445;DHT22;3764;48.126;11.594;2023-07-13T15:38:43;23.70;99.50
7445;DHT22;3764;48.126;11.594;2023-07-13T15:41:16;23.80;99.90
7445;DHT22;3764;48.126;11.594;2023-07-13T15:43:48;23.80;99.90
7445;DHT22;3764;48.126;11.594;2023-07-13T15:46:16;23.80;99.40
7445;DHT22;3764;48.126;11.594;2023-07-13T15:48:43;23.90;99.80
7445;DHT22;3764;48.126;11.594;2023-07-13T15:51:14;23.90;99.30
7445;DHT22;3764;48.126;11.594;2023-07-13T15:53:44;24.00;99.40
7445;DHT22;3764;48.126;11.594;2023-07-13T15:56:21;24.00;99.20
7445;DHT22;3764;48.126;11.594;2023-07-13T15:58:51;24.10;99.90
7445;DHT22;3764;48.126;11.594;2023-07-13T16:01:18;24.10;98.90